sensor_id;sensor_type;location;lat;lon;timestamp;P1;durP1;ratioP1;P2;durP2;ratioP2
20488;SDS011;10403;54.092;12.122;2024-03-23T00:53:11;31.40;;;5.27;;
20488;SDS011;10403;54.092;12.122;2024-03-23T00:55:40;28.50;;;6.10;;
20488;SDS011;10403;54.092;12.122;2024-03-23T00:58:08;23.67;;;5.30;;
20488;SDS011;10403;54.092;12.122;2024-03-23T01:00:34;21.93;;;4.77;;
20488;SDS011;10403;54.092;12.122;2024-03-23T01:03:01;26.53;;;5.53;;
20488;SDS011;10403;54.092;12.122;2024-03-23T01:05:27;27.77;;;5.77;;
20488;SDS011;10403;54.092;12.122;2024-03-23T01:07:53;30.37;;;6.73;;
20488;SDS011;10403;54.092;12.122;2024-03-23T01:10:20;24.50;;;5.00;;
20488;SDS011;10403;54.092;12.122;2024-03-23T01:12:46;25.23;;;6.00;;
20488;SDS011;10403;54.092;12.122;2024-03-23T01:15:12;30.90;;;5.90;;
20488;SDS011;10403;54.092;12.122;2024-03-23T01:17:38;25.20;;;5.23;;
20488;SDS011;10403;54.092;12.122;2024-03-23T01:20:05;31.13;;;5.87;;
20488;SDS011;10403;54.092;12.122;2024-03-23T01:22:32;29.90;;;5.87;;
20488;SDS011;10403;54.092;12.122;2024-03-23T01:24:58;32.63;;;5.50;;
20488;SDS011;10403;54.092;12.122;2024-03-23T01:27:25;38.50;;;7.03;;
20488;SDS011;10403;54.092;12.122;2024-03-23T01:29:51;29.70;;;5.47;;
20488;SDS011;10403;54.092;12.122;2024-03-23T01:32:18;23.10;;;5.40;;
20488;SDS011;10403;54.092;12.122;2024-03-23T01:34:45;34.27;;;6.73;;
20488;SDS011;10403;54.092;12.122;2024-03-23T01:37:11;37.53;;;5.87;;
20488;SDS011;10403;54.092;12.122;2024-03-23T01:39:38;25.67;;;5.00;;
20488;SDS011;10403;54.092;12.122;2024-03-23T01:42:04;38.90;;;6.37;;
20488;SDS011;10403;54.092;12.122;2024-03-23T01:44:31;36.63;;;7.37;;
20488;SDS011;10403;54.092;12.122;2024-03-23T01:46:57;25.03;;;5.63;;
20488;SDS011;10403;54.092;12.122;2024-03-23T01:49:23;28.73;;;5.37;;
20488;SDS011;10403;54.092;12.122;2024-03-23T01:51:50;38.40;;;6.17;;
20488;SDS011;10403;54.092;12.122;2024-03-23T01:54:16;23.67;;;5.27;;
20488;SDS011;10403;54.092;12.122;2024-03-23T01:56:43;29.93;;;5.90;;
20488;SDS011;10403;54.092;12.122;2024-03-23T01:59:10;33.33;;;6.10;;
20488;SDS011;10403;54.092;12.122;2024-03-23T02:01:36;30.10;;;5.63;;
20488;SDS011;10403;54.092;12.122;2024-03-23T02:04:02;30.60;;;6.53;;
20488;SDS011;10403;54.092;12.122;2024-03-23T02:06:29;24.60;;;5.23;;
20488;SDS011;10403;54.092;12.122;2024-03-23T02:08:56;30.33;;;5.60;;
20488;SDS011;10403;54.092;12.122;2024-03-23T02:11:22;31.33;;;6.23;;
20488;SDS011;10403;54.092;12.122;2024-03-23T02:13:48;28.83;;;5.57;;
20488;SDS011;10403;54.092;12.122;2024-03-23T02:16:15;31.87;;;5.53;;
20488;SDS011;10403;54.092;12.122;2024-03-23T02:18:41;28.43;;;5.43;;
20488;SDS011;10403;54.092;12.122;2024-03-23T02:21:07;32.97;;;5.63;;
20488;SDS011;10403;54.092;12.122;2024-03-23T02:23:33;30.63;;;6.20;;
20488;SDS011;10403;54.092;12.122;2024-03-23T02:26:03;37.73;;;7.37;;
20488;SDS011;10403;54.092;12.122;2024-03-23T02:28:29;34.67;;;6.77;;
20488;SDS011;10403;54.092;12.122;2024-03-23T02:30:55;33.43;;;5.80;;
20488;SDS011;10403;54.092;12.122;2024-03-23T02:33:24;24.03;;;4.83;;
20488;SDS011;10403;54.092;12.122;2024-03-23T02:35:50;25.13;;;5.03;;
20488;SDS011;10403;54.092;12.122;2024-03-23T02:38:22;34.73;;;5.73;;
20488;SDS011;10403;54.092;12.122;2024-03-23T02:40:48;32.93;;;5.77;;
20488;SDS011;10403;54.092;12.122;2024-03-23T02:43:15;19.47;;;5.07;;
20488;SDS011;10403;54.092;12.122;2024-03-23T02:45:42;19.00;;;4.47;;
20488;SDS011;10403;54.092;12.122;2024-03-23T02:48:08;27.23;;;5.37;;
20488;SDS011;10403;54.092;12.122;2024-03-23T02:50:35;29.27;;;5.13;;
20488;SDS011;10403;54.092;12.122;2024-03-23T02:53:02;22.70;;;5.13;;
20488;SDS011;10403;54.092;12.122;2024-03-23T02:55:28;38.80;;;5.87;;
20488;SDS011;10403;54.092;12.122;2024-03-23T02:57:54;27.27;;;4.97;;
20488;SDS011;10403;54.092;12.122;2024-03-23T03:00:21;31.90;;;5.83;;
20488;SDS011;10403;54.092;12.122;2024-03-23T03:02:47;27.37;;;5.93;;
20488;SDS011;10403;54.092;12.122;2024-03-23T03:05:13;27.70;;;6.03;;
20488;SDS011;10403;54.092;12.122;2024-03-23T03:07:40;30.50;;;5.53;;
20488;SDS011;10403;54.092;12.122;2024-03-23T03:10:06;23.27;;;4.27;;
20488;SDS011;10403;54.092;12.122;2024-03-23T03:12:35;20.97;;;4.77;;
20488;SDS011;10403;54.092;12.122;2024-03-23T03:15:06;24.90;;;4.67;;
20488;SDS011;10403;54.092;12.122;2024-03-23T03:17:35;27.03;;;4.97;;
20488;SDS011;10403;54.092;12.122;2024-03-23T03:20:01;27.80;;;5.13;;
20488;SDS011;10403;54.092;12.122;2024-03-23T03:22:28;29.53;;;5.53;;
20488;SDS011;10403;54.092;12.122;2024-03-23T03:24:54;39.53;;;5.77;;
20488;SDS011;10403;54.092;12.122;2024-03-23T03:27:20;34.37;;;5.57;;
20488;SDS011;10403;54.092;12.122;2024-03-23T03:29:48;41.27;;;5.37;;
20488;SDS011;10403;54.092;12.122;2024-03-23T03:32:14;24.10;;;5.57;;
20488;SDS011;10403;54.092;12.122;2024-03-23T03:34:40;31.27;;;5.23;;
20488;SDS011;10403;54.092;12.122;2024-03-23T03:37:06;29.80;;;4.77;;
20488;SDS011;10403;54.092;12.122;2024-03-23T03:39:33;25.60;;;4.53;;
20488;SDS011;10403;54.092;12.122;2024-03-23T03:41:59;43.43;;;5.83;;
20488;SDS011;10403;54.092;12.122;2024-03-23T03:44:27;35.70;;;5.33;;
20488;SDS011;10403;54.092;12.122;2024-03-23T03:46:53;24.57;;;5.37;;
20488;SDS011;10403;54.092;12.122;2024-03-23T03:49:19;30.33;;;5.33;;
20488;SDS011;10403;54.092;12.122;2024-03-23T03:51:45;31.47;;;5.50;;
20488;SDS011;10403;54.092;12.122;2024-03-23T03:54:12;33.70;;;5.80;;
20488;SDS011;10403;54.092;12.122;2024-03-23T03:56:38;37.03;;;6.30;;
20488;SDS011;10403;54.092;12.122;2024-03-23T03:59:05;25.00;;;5.30;;
20488;SDS011;10403;54.092;12.122;2024-03-23T04:01:31;34.63;;;5.47;;
20488;SDS011;10403;54.092;12.122;2024-03-23T04:03:57;29.90;;;5.93;;
20488;SDS011;10403;54.092;12.122;2024-03-23T04:06:23;29.57;;;5.47;;
20488;SDS011;10403;54.092;12.122;2024-03-23T04:08:49;31.73;;;5.63;;
20488;SDS011;10403;54.092;12.122;2024-03-23T04:11:16;31.40;;;4.83;;
20488;SDS011;10403;54.092;12.122;2024-03-23T04:13:42;38.20;;;5.83;;
20488;SDS011;10403;54.092;12.122;2024-03-23T04:16:09;31.50;;;6.43;;
20488;SDS011;10403;54.092;12.122;2024-03-23T04:18:35;33.70;;;6.07;;
20488;SDS011;10403;54.092;12.122;2024-03-23T04:21:01;30.60;;;5.43;;
20488;SDS011;10403;54.092;12.122;2024-03-23T04:23:28;25.27;;;4.47;;
20488;SDS011;10403;54.092;12.122;2024-03-23T04:25:54;30.60;;;5.23;;
20488;SDS011;10403;54.092;12.122;2024-03-23T04:28:20;30.57;;;4.73;;
20488;SDS011;10403;54.092;12.122;2024-03-23T04:30:47;24.63;;;4.60;;
20488;SDS011;10403;54.092;12.122;2024-03-23T04:33:14;27.23;;;5.10;;
20488;SDS011;10403;54.092;12.122;2024-03-23T04:35:40;37.13;;;5.47;;
20488;SDS011;10403;54.092;12.122;2024-03-23T04:38:07;32.83;;;5.77;;
20488;SDS011;10403;54.092;12.122;2024-03-23T04:40:33;34.60;;;5.67;;
20488;SDS011;10403;54.092;12.122;2024-03-23T04:42:59;31.23;;;5.57;;
20488;SDS011;10403;54.092;12.122;2024-03-23T04:45:26;30.03;;;5.13;;
20488;SDS011;10403;54.092;12.122;2024-03-23T04:47:53;33.07;;;6.63;;
20488;SDS011;10403;54.092;12.122;2024-03-23T04:50:19;28.80;;;5.17;;
20488;SDS011;10403;54.092;12.122;2024-03-23T04:52:46;35.57;;;4.70;;
20488;SDS011;10403;54.092;12.122;2024-03-23T04:55:12;33.47;;;4.93;;
20488;SDS011;10403;54.092;12.122;2024-03-23T04:57:40;21.57;;;5.20;;
20488;SDS011;10403;54.092;12.122;2024-03-23T05:00:06;25.50;;;5.03;;
20488;SDS011;10403;54.092;12.122;2024-03-23T05:02:43;32.07;;;5.87;;
20488;SDS011;10403;54.092;12.122;2024-03-23T05:05:10;30.20;;;5.70;;
20488;SDS011;10403;54.092;12.122;2024-03-23T05:07:38;28.80;;;5.43;;
20488;SDS011;10403;54.092;12.122;2024-03-23T05:10:04;32.33;;;5.17;;
20488;SDS011;10403;54.092;12.122;2024-03-23T05:12:31;30.60;;;5.60;;
20488;SDS011;10403;54.092;12.122;2024-03-23T05:14:58;32.90;;;5.83;;
20488;SDS011;10403;54.092;12.122;2024-03-23T05:17:24;41.10;;;5.47;;
20488;SDS011;10403;54.092;12.122;2024-03-23T05:19:50;31.90;;;6.20;;
20488;SDS011;10403;54.092;12.122;2024-03-23T05:22:16;30.13;;;5.43;;
20488;SDS011;10403;54.092;12.122;2024-03-23T05:24:44;28.43;;;4.93;;
20488;SDS011;10403;54.092;12.122;2024-03-23T05:27:11;29.93;;;5.83;;
20488;SDS011;10403;54.092;12.122;2024-03-23T05:29:38;33.10;;;5.57;;
20488;SDS011;10403;54.092;12.122;2024-03-23T05:32:04;27.43;;;5.50;;
20488;SDS011;10403;54.092;12.122;2024-03-23T05:34:30;28.00;;;5.47;;
20488;SDS011;10403;54.092;12.122;2024-03-23T05:36:57;33.93;;;4.83;;
20488;SDS011;10403;54.092;12.122;2024-03-23T05:39:23;34.70;;;5.73;;
20488;SDS011;10403;54.092;12.122;2024-03-23T05:41:49;27.07;;;5.40;;
20488;SDS011;10403;54.092;12.122;2024-03-23T05:44:16;30.10;;;5.13;;
20488;SDS011;10403;54.092;12.122;2024-03-23T05:46:43;23.10;;;4.80;;
20488;SDS011;10403;54.092;12.122;2024-03-23T05:49:14;28.13;;;5.60;;
20488;SDS011;10403;54.092;12.122;2024-03-23T05:51:43;35.93;;;6.20;;
20488;SDS011;10403;54.092;12.122;2024-03-23T05:54:09;30.97;;;5.37;;
20488;SDS011;10403;54.092;12.122;2024-03-23T05:56:35;30.60;;;5.23;;
20488;SDS011;10403;54.092;12.122;2024-03-23T05:59:01;38.10;;;5.93;;
20488;SDS011;10403;54.092;12.122;2024-03-23T06:01:29;30.23;;;5.57;;
20488;SDS011;10403;54.092;12.122;2024-03-23T06:03:58;28.03;;;4.80;;
20488;SDS011;10403;54.092;12.122;2024-03-23T06:06:24;29.07;;;5.23;;
20488;SDS011;10403;54.092;12.122;2024-03-23T06:08:51;31.60;;;5.20;;
20488;SDS011;10403;54.092;12.122;2024-03-23T06:11:17;25.93;;;4.87;;
20488;SDS011;10403;54.092;12.122;2024-03-23T06:13:44;32.93;;;6.10;;
20488;SDS011;10403;54.092;12.122;2024-03-23T06:16:10;31.27;;;5.13;;
20488;SDS011;10403;54.092;12.122;2024-03-23T06:18:36;22.30;;;5.30;;
20488;SDS011;10403;54.092;12.122;2024-03-23T06:21:02;24.63;;;5.47;;
20488;SDS011;10403;54.092;12.122;2024-03-23T06:23:29;28.27;;;4.97;;
20488;SDS011;10403;54.092;12.122;2024-03-23T06:25:55;26.60;;;4.87;;
20488;SDS011;10403;54.092;12.122;2024-03-23T06:28:21;22.90;;;4.63;;
20488;SDS011;10403;54.092;12.122;2024-03-23T06:30:49;30.57;;;5.17;;
20488;SDS011;10403;54.092;12.122;2024-03-23T06:33:15;28.83;;;5.90;;
20488;SDS011;10403;54.092;12.122;2024-03-23T06:35:42;26.80;;;5.40;;
20488;SDS011;10403;54.092;12.122;2024-03-23T06:38:08;30.80;;;5.23;;
20488;SDS011;10403;54.092;12.122;2024-03-23T06:40:35;30.80;;;5.87;;
20488;SDS011;10403;54.092;12.122;2024-03-23T06:43:02;28.03;;;5.27;;
20488;SDS011;10403;54.092;12.122;2024-03-23T06:45:28;40.80;;;5.50;;
20488;SDS011;10403;54.092;12.122;2024-03-23T06:47:54;32.00;;;5.47;;
20488;SDS011;10403;54.092;12.122;2024-03-23T06:50:23;32.93;;;5.87;;
20488;SDS011;10403;54.092;12.122;2024-03-23T06:52:49;30.73;;;5.10;;
20488;SDS011;10403;54.092;12.122;2024-03-23T06:55:15;24.23;;;5.47;;
20488;SDS011;10403;54.092;12.122;2024-03-23T06:57:42;26.87;;;4.73;;
20488;SDS011;10403;54.092;12.122;2024-03-23T07:00:08;24.53;;;4.60;;
20488;SDS011;10403;54.092;12.122;2024-03-23T07:02:35;25.60;;;4.40;;
20488;SDS011;10403;54.092;12.122;2024-03-23T07:05:01;23.03;;;5.63;;
20488;SDS011;10403;54.092;12.122;2024-03-23T07:07:28;25.83;;;4.90;;
20488;SDS011;10403;54.092;12.122;2024-03-23T07:09:55;25.80;;;5.03;;
20488;SDS011;10403;54.092;12.122;2024-03-23T07:12:21;27.57;;;6.17;;
20488;SDS011;10403;54.092;12.122;2024-03-23T07:14:48;23.10;;;5.20;;
20488;SDS011;10403;54.092;12.122;2024-03-23T07:17:15;29.17;;;4.90;;
20488;SDS011;10403;54.092;12.122;2024-03-23T07:19:43;22.27;;;5.23;;
20488;SDS011;10403;54.092;12.122;2024-03-23T07:22:10;24.17;;;5.90;;
20488;SDS011;10403;54.092;12.122;2024-03-23T07:24:36;33.13;;;5.03;;
20488;SDS011;10403;54.092;12.122;2024-03-23T07:27:04;28.13;;;5.97;;
20488;SDS011;10403;54.092;12.122;2024-03-23T07:29:31;24.60;;;4.43;;
20488;SDS011;10403;54.092;12.122;2024-03-23T07:31:57;25.37;;;4.83;;
20488;SDS011;10403;54.092;12.122;2024-03-23T07:34:23;31.53;;;4.97;;
20488;SDS011;10403;54.092;12.122;2024-03-23T07:36:49;26.17;;;5.13;;
20488;SDS011;10403;54.092;12.122;2024-03-23T07:39:16;20.80;;;5.00;;
20488;SDS011;10403;54.092;12.122;2024-03-23T07:41:44;32.03;;;5.47;;
20488;SDS011;10403;54.092;12.122;2024-03-23T07:44:11;33.93;;;6.10;;
20488;SDS011;10403;54.092;12.122;2024-03-23T07:46:37;22.03;;;5.07;;
20488;SDS011;10403;54.092;12.122;2024-03-23T07:49:06;20.53;;;4.50;;
20488;SDS011;10403;54.092;12.122;2024-03-23T07:51:33;31.30;;;5.30;;
20488;SDS011;10403;54.092;12.122;2024-03-23T07:54:00;28.10;;;5.23;;
20488;SDS011;10403;54.092;12.122;2024-03-23T07:56:26;26.13;;;5.40;;
20488;SDS011;10403;54.092;12.122;2024-03-23T07:58:53;25.17;;;5.87;;
20488;SDS011;10403;54.092;12.122;2024-03-23T08:01:19;25.60;;;5.57;;
20488;SDS011;10403;54.092;12.122;2024-03-23T08:03:45;29.50;;;5.53;;
20488;SDS011;10403;54.092;12.122;2024-03-23T08:06:13;23.63;;;4.83;;
20488;SDS011;10403;54.092;12.122;2024-03-23T08:08:43;26.23;;;6.20;;
20488;SDS011;10403;54.092;12.122;2024-03-23T08:11:13;26.50;;;5.67;;
20488;SDS011;10403;54.092;12.122;2024-03-23T08:13:40;30.63;;;5.50;;
20488;SDS011;10403;54.092;12.122;2024-03-23T08:16:07;24.40;;;5.77;;
20488;SDS011;10403;54.092;12.122;2024-03-23T08:18:34;23.37;;;5.80;;
20488;SDS011;10403;54.092;12.122;2024-03-23T08:21:01;24.80;;;5.33;;
20488;SDS011;10403;54.092;12.122;2024-03-23T08:23:34;27.90;;;5.20;;
20488;SDS011;10403;54.092;12.122;2024-03-23T08:26:07;20.07;;;5.23;;
20488;SDS011;10403;54.092;12.122;2024-03-23T08:28:39;31.13;;;5.60;;
20488;SDS011;10403;54.092;12.122;2024-03-23T08:31:08;22.10;;;4.70;;
20488;SDS011;10403;54.092;12.122;2024-03-23T08:33:37;24.17;;;5.40;;
20488;SDS011;10403;54.092;12.122;2024-03-23T08:36:05;18.70;;;4.83;;
20488;SDS011;10403;54.092;12.122;2024-03-23T08:38:33;23.83;;;6.97;;
20488;SDS011;10403;54.092;12.122;2024-03-23T08:41:00;19.03;;;4.73;;
20488;SDS011;10403;54.092;12.122;2024-03-23T08:43:28;28.27;;;5.03;;
20488;SDS011;10403;54.092;12.122;2024-03-23T08:48:36;25.80;;;4.53;;
20488;SDS011;10403;54.092;12.122;2024-03-23T08:51:06;24.03;;;5.47;;
20488;SDS011;10403;54.092;12.122;2024-03-23T08:53:34;23.80;;;4.70;;
20488;SDS011;10403;54.092;12.122;2024-03-23T08:56:01;18.57;;;4.70;;
20488;SDS011;10403;54.092;12.122;2024-03-23T08:58:30;21.57;;;3.97;;
20488;SDS011;10403;54.092;12.122;2024-03-23T09:01:03;27.70;;;4.77;;
20488;SDS011;10403;54.092;12.122;2024-03-23T09:03:39;19.07;;;4.60;;
20488;SDS011;10403;54.092;12.122;2024-03-23T09:06:09;19.50;;;4.17;;
20488;SDS011;10403;54.092;12.122;2024-03-23T09:08:37;18.90;;;3.70;;
20488;SDS011;10403;54.092;12.122;2024-03-23T09:11:05;21.17;;;4.40;;
20488;SDS011;10403;54.092;12.122;2024-03-23T09:13:33;17.63;;;3.70;;
20488;SDS011;10403;54.092;12.122;2024-03-23T09:16:00;24.93;;;4.53;;
20488;SDS011;10403;54.092;12.122;2024-03-23T09:18:27;26.60;;;5.00;;
20488;SDS011;10403;54.092;12.122;2024-03-23T09:21:01;25.27;;;4.97;;
20488;SDS011;10403;54.092;12.122;2024-03-23T09:23:36;24.33;;;4.03;;
20488;SDS011;10403;54.092;12.122;2024-03-23T09:26:03;16.87;;;4.10;;
20488;SDS011;10403;54.092;12.122;2024-03-23T09:28:30;22.43;;;4.40;;
20488;SDS011;10403;54.092;12.122;2024-03-23T09:31:03;21.97;;;5.00;;
20488;SDS011;10403;54.092;12.122;2024-03-23T09:33:30;27.07;;;4.67;;
20488;SDS011;10403;54.092;12.122;2024-03-23T09:35:57;28.73;;;5.27;;
20488;SDS011;10403;54.092;12.122;2024-03-23T09:38:23;23.37;;;4.77;;
20488;SDS011;10403;54.092;12.122;2024-03-23T09:40:50;19.67;;;4.27;;
20488;SDS011;10403;54.092;12.122;2024-03-23T09:43:19;20.37;;;4.53;;
20488;SDS011;10403;54.092;12.122;2024-03-23T09:45:46;25.50;;;4.67;;
20488;SDS011;10403;54.092;12.122;2024-03-23T09:48:12;17.47;;;4.67;;
20488;SDS011;10403;54.092;12.122;2024-03-23T09:50:39;14.47;;;4.13;;
20488;SDS011;10403;54.092;12.122;2024-03-23T09:53:06;19.30;;;4.67;;
20488;SDS011;10403;54.092;12.122;2024-03-23T09:55:34;15.90;;;4.13;;
20488;SDS011;10403;54.092;12.122;2024-03-23T09:58:02;23.77;;;4.33;;
20488;SDS011;10403;54.092;12.122;2024-03-23T10:00:33;24.20;;;4.60;;
20488;SDS011;10403;54.092;12.122;2024-03-23T10:03:01;20.13;;;4.70;;
20488;SDS011;10403;54.092;12.122;2024-03-23T10:05:28;19.10;;;3.57;;
20488;SDS011;10403;54.092;12.122;2024-03-23T10:07:57;16.40;;;4.40;;
20488;SDS011;10403;54.092;12.122;2024-03-23T10:10:24;15.87;;;3.67;;
20488;SDS011;10403;54.092;12.122;2024-03-23T10:12:51;15.23;;;3.40;;
20488;SDS011;10403;54.092;12.122;2024-03-23T10:15:18;12.27;;;3.33;;
20488;SDS011;10403;54.092;12.122;2024-03-23T10:17:52;11.30;;;3.10;;
20488;SDS011;10403;54.092;12.122;2024-03-23T10:20:22;16.03;;;3.67;;
20488;SDS011;10403;54.092;12.122;2024-03-23T10:22:49;18.03;;;4.17;;
20488;SDS011;10403;54.092;12.122;2024-03-23T10:25:24;16.80;;;4.03;;
20488;SDS011;10403;54.092;12.122;2024-03-23T10:27:58;16.70;;;4.03;;
20488;SDS011;10403;54.092;12.122;2024-03-23T10:30:29;17.77;;;4.23;;
20488;SDS011;10403;54.092;12.122;2024-03-23T10:33:11;21.90;;;3.53;;
20488;SDS011;10403;54.092;12.122;2024-03-23T10:35:37;15.27;;;4.10;;
20488;SDS011;10403;54.092;12.122;2024-03-23T10:38:05;18.77;;;3.83;;
20488;SDS011;10403;54.092;12.122;2024-03-23T10:40:34;14.37;;;3.33;;
20488;SDS011;10403;54.092;12.122;2024-03-23T10:43:01;17.27;;;3.43;;
20488;SDS011;10403;54.092;12.122;2024-03-23T10:45:29;10.83;;;3.40;;
20488;SDS011;10403;54.092;12.122;2024-03-23T10:47:56;17.77;;;3.33;;
20488;SDS011;10403;54.092;12.122;2024-03-23T10:50:23;10.27;;;3.27;;
20488;SDS011;10403;54.092;12.122;2024-03-23T10:52:49;23.47;;;4.70;;
20488;SDS011;10403;54.092;12.122;2024-03-23T10:55:19;17.63;;;4.20;;
20488;SDS011;10403;54.092;12.122;2024-03-23T10:57:50;14.93;;;3.43;;
20488;SDS011;10403;54.092;12.122;2024-03-23T11:00:20;19.33;;;4.47;;
20488;SDS011;10403;54.092;12.122;2024-03-23T11:02:47;13.53;;;3.30;;
20488;SDS011;10403;54.092;12.122;2024-03-23T11:05:27;13.80;;;3.63;;
20488;SDS011;10403;54.092;12.122;2024-03-23T11:07:56;12.77;;;3.23;;
20488;SDS011;10403;54.092;12.122;2024-03-23T11:10:26;15.77;;;3.83;;
20488;SDS011;10403;54.092;12.122;2024-03-23T11:12:58;17.60;;;3.03;;
20488;SDS011;10403;54.092;12.122;2024-03-23T11:15:48;15.40;;;3.70;;
20488;SDS011;10403;54.092;12.122;2024-03-23T11:18:20;20.43;;;3.50;;
20488;SDS011;10403;54.092;12.122;2024-03-23T11:20:47;12.47;;;2.80;;
20488;SDS011;10403;54.092;12.122;2024-03-23T11:23:26;11.80;;;2.57;;
20488;SDS011;10403;54.092;12.122;2024-03-23T11:25:54;12.77;;;3.03;;
20488;SDS011;10403;54.092;12.122;2024-03-23T11:28:20;17.10;;;3.10;;
20488;SDS011;10403;54.092;12.122;2024-03-23T11:30:47;20.43;;;3.37;;
20488;SDS011;10403;54.092;12.122;2024-03-23T11:33:14;9.67;;;2.97;;
20488;SDS011;10403;54.092;12.122;2024-03-23T11:35:41;16.40;;;3.00;;
20488;SDS011;10403;54.092;12.122;2024-03-23T11:38:11;11.43;;;2.60;;
20488;SDS011;10403;54.092;12.122;2024-03-23T11:40:46;7.53;;;2.60;;
20488;SDS011;10403;54.092;12.122;2024-03-23T11:43:17;16.73;;;3.80;;
20488;SDS011;10403;54.092;12.122;2024-03-23T11:45:50;14.90;;;3.27;;
20488;SDS011;10403;54.092;12.122;2024-03-23T11:48:19;11.53;;;2.57;;
20488;SDS011;10403;54.092;12.122;2024-03-23T11:50:48;16.03;;;3.30;;
20488;SDS011;10403;54.092;12.122;2024-03-23T11:53:23;14.13;;;3.20;;
20488;SDS011;10403;54.092;12.122;2024-03-23T11:55:58;12.13;;;2.80;;
20488;SDS011;10403;54.092;12.122;2024-03-23T11:58:27;12.30;;;1.83;;
20488;SDS011;10403;54.092;12.122;2024-03-23T12:00:57;2.17;;;1.40;;
20488;SDS011;10403;54.092;12.122;2024-03-23T12:03:33;2.10;;;1.00;;
20488;SDS011;10403;54.092;12.122;2024-03-23T12:06:01;4.87;;;1.50;;
20488;SDS011;10403;54.092;12.122;2024-03-23T12:08:30;2.50;;;1.20;;
20488;SDS011;10403;54.092;12.122;2024-03-23T12:11:05;5.70;;;1.30;;
20488;SDS011;10403;54.092;12.122;2024-03-23T12:13:39;1.70;;;1.00;;
20488;SDS011;10403;54.092;12.122;2024-03-23T12:16:10;3.20;;;1.30;;
20488;SDS011;10403;54.092;12.122;2024-03-23T12:18:42;3.17;;;1.10;;
20488;SDS011;10403;54.092;12.122;2024-03-23T12:21:15;3.33;;;1.43;;
20488;SDS011;10403;54.092;12.122;2024-03-23T12:23:43;4.33;;;1.23;;
20488;SDS011;10403;54.092;12.122;2024-03-23T12:26:10;2.30;;;1.07;;
20488;SDS011;10403;54.092;12.122;2024-03-23T12:28:37;3.83;;;1.03;;
20488;SDS011;10403;54.092;12.122;2024-03-23T12:31:04;2.37;;;0.93;;
20488;SDS011;10403;54.092;12.122;2024-03-23T12:33:31;2.17;;;1.30;;
20488;SDS011;10403;54.092;12.122;2024-03-23T12:35:58;4.03;;;1.30;;
20488;SDS011;10403;54.092;12.122;2024-03-23T12:38:24;3.53;;;1.60;;
20488;SDS011;10403;54.092;12.122;2024-03-23T12:40:50;2.50;;;0.90;;
20488;SDS011;10403;54.092;12.122;2024-03-23T12:43:17;3.20;;;1.30;;
20488;SDS011;10403;54.092;12.122;2024-03-23T12:45:47;6.33;;;1.77;;
20488;SDS011;10403;54.092;12.122;2024-03-23T12:48:14;9.03;;;1.80;;
20488;SDS011;10403;54.092;12.122;2024-03-23T12:50:42;5.17;;;2.00;;
20488;SDS011;10403;54.092;12.122;2024-03-23T12:53:08;6.93;;;1.33;;
20488;SDS011;10403;54.092;12.122;2024-03-23T12:55:34;4.03;;;1.60;;
20488;SDS011;10403;54.092;12.122;2024-03-23T12:58:01;3.77;;;1.50;;
20488;SDS011;10403;54.092;12.122;2024-03-23T13:00:28;4.47;;;1.90;;
20488;SDS011;10403;54.092;12.122;2024-03-23T13:02:55;8.27;;;1.93;;
20488;SDS011;10403;54.092;12.122;2024-03-23T13:05:21;5.03;;;1.63;;
20488;SDS011;10403;54.092;12.122;2024-03-23T13:07:47;8.63;;;1.97;;
20488;SDS011;10403;54.092;12.122;2024-03-23T13:10:13;11.40;;;4.73;;
20488;SDS011;10403;54.092;12.122;2024-03-23T13:12:41;5.80;;;2.13;;
20488;SDS011;10403;54.092;12.122;2024-03-23T13:15:08;7.30;;;1.83;;
20488;SDS011;10403;54.092;12.122;2024-03-23T13:17:35;5.07;;;1.50;;
20488;SDS011;10403;54.092;12.122;2024-03-23T13:20:01;7.00;;;1.90;;
20488;SDS011;10403;54.092;12.122;2024-03-23T13:22:29;4.20;;;1.77;;
20488;SDS011;10403;54.092;12.122;2024-03-23T13:24:55;5.97;;;1.90;;
20488;SDS011;10403;54.092;12.122;2024-03-23T13:27:22;6.47;;;1.80;;
20488;SDS011;10403;54.092;12.122;2024-03-23T13:29:48;6.27;;;2.23;;
20488;SDS011;10403;54.092;12.122;2024-03-23T13:32:14;11.20;;;2.30;;
20488;SDS011;10403;54.092;12.122;2024-03-23T13:34:40;7.30;;;2.37;;
20488;SDS011;10403;54.092;12.122;2024-03-23T13:37:07;5.07;;;1.80;;
20488;SDS011;10403;54.092;12.122;2024-03-23T13:39:33;6.87;;;1.90;;
20488;SDS011;10403;54.092;12.122;2024-03-23T13:41:59;6.17;;;1.80;;
20488;SDS011;10403;54.092;12.122;2024-03-23T13:44:25;5.10;;;1.53;;
20488;SDS011;10403;54.092;12.122;2024-03-23T13:46:52;7.00;;;1.97;;
20488;SDS011;10403;54.092;12.122;2024-03-23T13:49:29;5.20;;;1.83;;
20488;SDS011;10403;54.092;12.122;2024-03-23T13:51:56;4.87;;;2.10;;
20488;SDS011;10403;54.092;12.122;2024-03-23T13:54:27;6.70;;;1.80;;
20488;SDS011;10403;54.092;12.122;2024-03-23T13:56:54;8.87;;;2.10;;
20488;SDS011;10403;54.092;12.122;2024-03-23T13:59:21;7.10;;;2.27;;
20488;SDS011;10403;54.092;12.122;2024-03-23T14:01:51;7.03;;;2.00;;
20488;SDS011;10403;54.092;12.122;2024-03-23T14:04:17;3.47;;;1.63;;
20488;SDS011;10403;54.092;12.122;2024-03-23T14:06:46;7.37;;;1.80;;
20488;SDS011;10403;54.092;12.122;2024-03-23T14:09:13;9.23;;;2.27;;
20488;SDS011;10403;54.092;12.122;2024-03-23T14:11:43;5.90;;;1.87;;
20488;SDS011;10403;54.092;12.122;2024-03-23T14:14:09;7.83;;;2.00;;
20488;SDS011;10403;54.092;12.122;2024-03-23T14:16:36;5.97;;;1.63;;
20488;SDS011;10403;54.092;12.122;2024-03-23T14:19:02;8.13;;;2.17;;
20488;SDS011;10403;54.092;12.122;2024-03-23T14:21:30;8.23;;;2.27;;
20488;SDS011;10403;54.092;12.122;2024-03-23T14:23:56;7.70;;;2.10;;
20488;SDS011;10403;54.092;12.122;2024-03-23T14:26:23;6.83;;;1.63;;
20488;SDS011;10403;54.092;12.122;2024-03-23T14:28:49;5.83;;;1.77;;
20488;SDS011;10403;54.092;12.122;2024-03-23T14:31:16;5.10;;;1.70;;
20488;SDS011;10403;54.092;12.122;2024-03-23T14:33:42;6.97;;;2.17;;
20488;SDS011;10403;54.092;12.122;2024-03-23T14:36:12;4.67;;;1.60;;
20488;SDS011;10403;54.092;12.122;2024-03-23T14:38:40;8.60;;;2.00;;
20488;SDS011;10403;54.092;12.122;2024-03-23T14:41:06;5.80;;;1.80;;
20488;SDS011;10403;54.092;12.122;2024-03-23T14:43:32;9.97;;;2.53;;
20488;SDS011;10403;54.092;12.122;2024-03-23T14:46:20;7.33;;;2.23;;
20488;SDS011;10403;54.092;12.122;2024-03-23T14:48:46;13.40;;;2.30;;
20488;SDS011;10403;54.092;12.122;2024-03-23T14:51:12;11.43;;;2.37;;
20488;SDS011;10403;54.092;12.122;2024-03-23T14:53:39;9.70;;;1.90;;
20488;SDS011;10403;54.092;12.122;2024-03-23T14:56:10;6.00;;;1.77;;
20488;SDS011;10403;54.092;12.122;2024-03-23T14:58:38;7.20;;;2.10;;
20488;SDS011;10403;54.092;12.122;2024-03-23T15:01:05;5.27;;;1.80;;
20488;SDS011;10403;54.092;12.122;2024-03-23T15:03:37;9.73;;;2.43;;
20488;SDS011;10403;54.092;12.122;2024-03-23T15:06:08;14.60;;;2.40;;
20488;SDS011;10403;54.092;12.122;2024-03-23T15:08:35;7.47;;;1.70;;
20488;SDS011;10403;54.092;12.122;2024-03-23T15:11:02;5.90;;;2.20;;
20488;SDS011;10403;54.092;12.122;2024-03-23T15:13:34;9.53;;;2.10;;
20488;SDS011;10403;54.092;12.122;2024-03-23T15:16:02;9.20;;;1.87;;
20488;SDS011;10403;54.092;12.122;2024-03-23T15:18:30;6.77;;;1.97;;
20488;SDS011;10403;54.092;12.122;2024-03-23T15:20:57;6.83;;;1.73;;